OERR

Arar Domestic Airport

Arar, Saudi Arabia
TAF OERR 202300Z 2100/2206 34010KT CAVOK BECMG 2110/2112 28015KT
Issued Valid From Valid To
Jul-20 @ 23:00 UTC
(11 hours ago)
Jul-21 @ 00:00 UTC
(10 hours ago)
Jul-22 @ 06:00 UTC
(in 20 hours)
Jul-21 @ 00:00 to Jul-21 @ 10:00
TAF OERR 202300Z 2100/2206 34010KT CAVOK
Wind Visibility Clouds Conditions
340° at 10 knots 10,000+ meters
  • No significant clouds
Becoming Jul-21 @ 10:00 to Jul-22 @ 06:00
BECMG 2110/2112 28015KT
Wind Visibility Clouds Conditions
280° at 15 knots 10,000+ meters
  • No significant clouds
TAF OERR 202300Z 2100/2206 34010KT CAVOK BECMG 2110/2112 28015KT
Issued Jul-20 @ 23:00 UTC
(11 hours ago)
Valid From Jul-21 @ 00:00 UTC
(10 hours ago)
Valid To Jul-22 @ 06:00 UTC
(in 20 hours)
Jul-21 @ 00:00 - Jul-21 @ 10:00
Wind Visibility
340° at 10 knots 10,000+ meters
Clouds
  • No significant clouds
Conditions
Becoming Jul-21 @ 10:00 - Jul-22 @ 06:00
Wind Visibility
280° at 15 knots 10,000+ meters
Clouds
  • No significant clouds
Conditions